sensor_id;sensor_type;location;lat;lon;timestamp;P1;durP1;ratioP1;P2;durP2;ratioP2
19434;SDS011;9853;50.848;4.108;2023-04-09T00:01:20;99.43;;;56.43;;
19434;SDS011;9853;50.848;4.108;2023-04-09T00:03:20;106.80;;;59.87;;
19434;SDS011;9853;50.848;4.108;2023-04-09T00:05:21;104.97;;;60.13;;
19434;SDS011;9853;50.848;4.108;2023-04-09T00:07:22;100.73;;;57.13;;
19434;SDS011;9853;50.848;4.108;2023-04-09T00:09:23;102.07;;;57.43;;
19434;SDS011;9853;50.848;4.108;2023-04-09T00:11:23;102.63;;;59.27;;
19434;SDS011;9853;50.848;4.108;2023-04-09T00:13:24;110.30;;;59.90;;
19434;SDS011;9853;50.848;4.108;2023-04-09T00:15:25;112.03;;;61.83;;
19434;SDS011;9853;50.848;4.108;2023-04-09T00:17:26;111.80;;;60.77;;
19434;SDS011;9853;50.848;4.108;2023-04-09T00:19:27;104.37;;;58.67;;
19434;SDS011;9853;50.848;4.108;2023-04-09T00:21:27;110.67;;;60.33;;
19434;SDS011;9853;50.848;4.108;2023-04-09T00:23:28;111.45;;;62.25;;
19434;SDS011;9853;50.848;4.108;2023-04-09T00:25:29;113.43;;;61.60;;
19434;SDS011;9853;50.848;4.108;2023-04-09T00:27:30;108.73;;;61.63;;
19434;SDS011;9853;50.848;4.108;2023-04-09T00:29:31;116.73;;;63.13;;
19434;SDS011;9853;50.848;4.108;2023-04-09T00:31:32;119.53;;;64.37;;
19434;SDS011;9853;50.848;4.108;2023-04-09T00:33:32;122.97;;;62.10;;
19434;SDS011;9853;50.848;4.108;2023-04-09T00:35:33;116.70;;;63.57;;
19434;SDS011;9853;50.848;4.108;2023-04-09T00:37:34;115.93;;;62.80;;
19434;SDS011;9853;50.848;4.108;2023-04-09T00:39:34;117.83;;;64.40;;
19434;SDS011;9853;50.848;4.108;2023-04-09T00:41:35;120.23;;;63.07;;
19434;SDS011;9853;50.848;4.108;2023-04-09T00:43:36;116.63;;;63.83;;
19434;SDS011;9853;50.848;4.108;2023-04-09T00:45:36;124.83;;;66.40;;
19434;SDS011;9853;50.848;4.108;2023-04-09T00:47:38;119.33;;;64.73;;
19434;SDS011;9853;50.848;4.108;2023-04-09T00:49:38;128.57;;;67.53;;
19434;SDS011;9853;50.848;4.108;2023-04-09T00:51:39;131.47;;;66.60;;
19434;SDS011;9853;50.848;4.108;2023-04-09T00:53:40;128.40;;;65.90;;
19434;SDS011;9853;50.848;4.108;2023-04-09T00:55:42;129.13;;;66.20;;
19434;SDS011;9853;50.848;4.108;2023-04-09T00:57:45;128.17;;;64.40;;
19434;SDS011;9853;50.848;4.108;2023-04-09T00:59:46;126.37;;;66.03;;
19434;SDS011;9853;50.848;4.108;2023-04-09T01:01:46;127.13;;;66.10;;
19434;SDS011;9853;50.848;4.108;2023-04-09T01:03:47;124.10;;;66.07;;
19434;SDS011;9853;50.848;4.108;2023-04-09T01:15:09;106.97;;;57.40;;
19434;SDS011;9853;50.848;4.108;2023-04-09T01:17:18;109.63;;;56.70;;
19434;SDS011;9853;50.848;4.108;2023-04-09T01:21:38;103.63;;;56.90;;
19434;SDS011;9853;50.848;4.108;2023-04-09T01:28:52;103.97;;;54.00;;
19434;SDS011;9853;50.848;4.108;2023-04-09T01:30:56;101.73;;;54.73;;
19434;SDS011;9853;50.848;4.108;2023-04-09T01:33:00;99.13;;;54.43;;
19434;SDS011;9853;50.848;4.108;2023-04-09T01:35:04;103.67;;;57.27;;
19434;SDS011;9853;50.848;4.108;2023-04-09T01:37:06;104.60;;;56.73;;
19434;SDS011;9853;50.848;4.108;2023-04-09T01:39:08;107.50;;;57.37;;
19434;SDS011;9853;50.848;4.108;2023-04-09T01:41:11;105.80;;;59.03;;
19434;SDS011;9853;50.848;4.108;2023-04-09T01:43:15;107.20;;;56.10;;
19434;SDS011;9853;50.848;4.108;2023-04-09T01:45:17;100.50;;;56.13;;
19434;SDS011;9853;50.848;4.108;2023-04-09T01:47:19;105.80;;;56.93;;
19434;SDS011;9853;50.848;4.108;2023-04-09T01:49:21;109.43;;;58.00;;
19434;SDS011;9853;50.848;4.108;2023-04-09T01:51:22;103.40;;;57.33;;
19434;SDS011;9853;50.848;4.108;2023-04-09T01:53:23;102.37;;;56.47;;
19434;SDS011;9853;50.848;4.108;2023-04-09T01:55:27;101.57;;;55.77;;
19434;SDS011;9853;50.848;4.108;2023-04-09T01:57:28;101.73;;;54.33;;
19434;SDS011;9853;50.848;4.108;2023-04-09T01:59:30;96.33;;;50.93;;
19434;SDS011;9853;50.848;4.108;2023-04-09T02:01:32;95.53;;;52.43;;
19434;SDS011;9853;50.848;4.108;2023-04-09T02:03:51;90.50;;;50.70;;
19434;SDS011;9853;50.848;4.108;2023-04-09T02:06:14;87.27;;;48.33;;
19434;SDS011;9853;50.848;4.108;2023-04-09T02:08:25;84.67;;;47.30;;
19434;SDS011;9853;50.848;4.108;2023-04-09T02:10:29;85.23;;;45.30;;
19434;SDS011;9853;50.848;4.108;2023-04-09T02:12:37;82.97;;;46.33;;
19434;SDS011;9853;50.848;4.108;2023-04-09T02:14:40;82.07;;;45.37;;
19434;SDS011;9853;50.848;4.108;2023-04-09T02:16:41;78.53;;;43.47;;
19434;SDS011;9853;50.848;4.108;2023-04-09T02:18:43;74.97;;;44.13;;
19434;SDS011;9853;50.848;4.108;2023-04-09T02:20:44;73.53;;;43.47;;
19434;SDS011;9853;50.848;4.108;2023-04-09T02:22:45;74.13;;;42.90;;
19434;SDS011;9853;50.848;4.108;2023-04-09T02:24:46;74.20;;;42.97;;
19434;SDS011;9853;50.848;4.108;2023-04-09T02:26:46;75.10;;;42.33;;
19434;SDS011;9853;50.848;4.108;2023-04-09T02:28:47;76.00;;;41.53;;
19434;SDS011;9853;50.848;4.108;2023-04-09T02:30:48;72.23;;;40.97;;
19434;SDS011;9853;50.848;4.108;2023-04-09T02:32:49;69.97;;;40.73;;
19434;SDS011;9853;50.848;4.108;2023-04-09T02:34:49;69.53;;;41.37;;
19434;SDS011;9853;50.848;4.108;2023-04-09T02:36:50;69.07;;;40.70;;
19434;SDS011;9853;50.848;4.108;2023-04-09T02:38:51;71.07;;;38.57;;
19434;SDS011;9853;50.848;4.108;2023-04-09T02:40:52;67.57;;;40.03;;
19434;SDS011;9853;50.848;4.108;2023-04-09T02:42:53;64.03;;;38.37;;
19434;SDS011;9853;50.848;4.108;2023-04-09T02:44:54;70.23;;;40.03;;
19434;SDS011;9853;50.848;4.108;2023-04-09T02:46:57;67.60;;;40.30;;
19434;SDS011;9853;50.848;4.108;2023-04-09T02:48:58;67.37;;;38.80;;
19434;SDS011;9853;50.848;4.108;2023-04-09T02:50:59;69.80;;;39.67;;
19434;SDS011;9853;50.848;4.108;2023-04-09T02:53:00;69.00;;;40.43;;
19434;SDS011;9853;50.848;4.108;2023-04-09T02:55:00;73.23;;;41.77;;
19434;SDS011;9853;50.848;4.108;2023-04-09T02:57:01;74.03;;;42.93;;
19434;SDS011;9853;50.848;4.108;2023-04-09T02:59:02;80.97;;;43.67;;
19434;SDS011;9853;50.848;4.108;2023-04-09T03:01:03;70.73;;;43.50;;
19434;SDS011;9853;50.848;4.108;2023-04-09T03:03:03;72.17;;;39.83;;
19434;SDS011;9853;50.848;4.108;2023-04-09T03:05:04;72.07;;;39.77;;
19434;SDS011;9853;50.848;4.108;2023-04-09T03:07:05;71.23;;;40.90;;
19434;SDS011;9853;50.848;4.108;2023-04-09T03:09:06;70.87;;;39.87;;
19434;SDS011;9853;50.848;4.108;2023-04-09T03:11:07;71.90;;;40.33;;
19434;SDS011;9853;50.848;4.108;2023-04-09T03:13:07;68.07;;;40.07;;
19434;SDS011;9853;50.848;4.108;2023-04-09T03:15:09;67.30;;;39.00;;
19434;SDS011;9853;50.848;4.108;2023-04-09T03:17:10;66.40;;;38.73;;
19434;SDS011;9853;50.848;4.108;2023-04-09T03:19:10;64.77;;;38.50;;
19434;SDS011;9853;50.848;4.108;2023-04-09T03:21:11;67.47;;;39.13;;
19434;SDS011;9853;50.848;4.108;2023-04-09T03:23:18;72.57;;;40.60;;
19434;SDS011;9853;50.848;4.108;2023-04-09T03:25:21;76.70;;;39.07;;
19434;SDS011;9853;50.848;4.108;2023-04-09T03:27:25;77.53;;;41.47;;
19434;SDS011;9853;50.848;4.108;2023-04-09T03:29:29;72.23;;;40.73;;
19434;SDS011;9853;50.848;4.108;2023-04-09T03:31:30;74.43;;;40.93;;
19434;SDS011;9853;50.848;4.108;2023-04-09T03:33:31;72.87;;;41.73;;
19434;SDS011;9853;50.848;4.108;2023-04-09T03:35:33;75.13;;;43.03;;
19434;SDS011;9853;50.848;4.108;2023-04-09T03:37:34;76.23;;;41.77;;
19434;SDS011;9853;50.848;4.108;2023-04-09T03:39:35;71.37;;;41.00;;
19434;SDS011;9853;50.848;4.108;2023-04-09T03:41:36;71.97;;;40.73;;
19434;SDS011;9853;50.848;4.108;2023-04-09T03:43:40;69.67;;;39.27;;
19434;SDS011;9853;50.848;4.108;2023-04-09T03:45:41;77.03;;;42.37;;
19434;SDS011;9853;50.848;4.108;2023-04-09T03:47:51;74.93;;;40.30;;
19434;SDS011;9853;50.848;4.108;2023-04-09T03:49:55;73.03;;;38.53;;
19434;SDS011;9853;50.848;4.108;2023-04-09T03:52:00;71.33;;;40.43;;
19434;SDS011;9853;50.848;4.108;2023-04-09T03:54:09;70.23;;;40.70;;
19434;SDS011;9853;50.848;4.108;2023-04-09T03:56:10;70.47;;;39.53;;
19434;SDS011;9853;50.848;4.108;2023-04-09T03:58:12;75.60;;;42.30;;
19434;SDS011;9853;50.848;4.108;2023-04-09T04:00:13;67.37;;;40.07;;
19434;SDS011;9853;50.848;4.108;2023-04-09T04:02:32;78.73;;;39.53;;
19434;SDS011;9853;50.848;4.108;2023-04-09T04:04:37;71.33;;;40.33;;
19434;SDS011;9853;50.848;4.108;2023-04-09T04:06:42;74.23;;;40.37;;
19434;SDS011;9853;50.848;4.108;2023-04-09T04:09:01;89.10;;;42.13;;
19434;SDS011;9853;50.848;4.108;2023-04-09T04:11:25;79.07;;;40.73;;
19434;SDS011;9853;50.848;4.108;2023-04-09T04:13:28;76.23;;;40.87;;
19434;SDS011;9853;50.848;4.108;2023-04-09T04:15:30;78.73;;;42.30;;
19434;SDS011;9853;50.848;4.108;2023-04-09T04:17:32;83.73;;;42.63;;
19434;SDS011;9853;50.848;4.108;2023-04-09T04:19:35;83.33;;;42.17;;
19434;SDS011;9853;50.848;4.108;2023-04-09T04:21:36;83.60;;;41.73;;
19434;SDS011;9853;50.848;4.108;2023-04-09T04:23:36;77.27;;;41.10;;
19434;SDS011;9853;50.848;4.108;2023-04-09T04:25:50;78.10;;;41.87;;
19434;SDS011;9853;50.848;4.108;2023-04-09T04:27:58;79.03;;;39.80;;
19434;SDS011;9853;50.848;4.108;2023-04-09T04:30:08;78.53;;;41.37;;
19434;SDS011;9853;50.848;4.108;2023-04-09T04:32:15;69.60;;;40.23;;
19434;SDS011;9853;50.848;4.108;2023-04-09T04:34:16;74.20;;;40.13;;
19434;SDS011;9853;50.848;4.108;2023-04-09T04:36:21;76.50;;;39.73;;
19434;SDS011;9853;50.848;4.108;2023-04-09T04:38:25;76.20;;;40.07;;
19434;SDS011;9853;50.848;4.108;2023-04-09T04:40:26;80.10;;;40.27;;
19434;SDS011;9853;50.848;4.108;2023-04-09T04:42:32;72.60;;;39.83;;
19434;SDS011;9853;50.848;4.108;2023-04-09T04:44:35;76.47;;;41.07;;
19434;SDS011;9853;50.848;4.108;2023-04-09T04:46:45;74.20;;;40.23;;
19434;SDS011;9853;50.848;4.108;2023-04-09T04:48:45;80.23;;;41.77;;
19434;SDS011;9853;50.848;4.108;2023-04-09T04:50:46;83.30;;;44.47;;
19434;SDS011;9853;50.848;4.108;2023-04-09T04:52:55;78.77;;;40.93;;
19434;SDS011;9853;50.848;4.108;2023-04-09T04:55:00;80.70;;;42.70;;
19434;SDS011;9853;50.848;4.108;2023-04-09T04:57:01;78.77;;;41.30;;
19434;SDS011;9853;50.848;4.108;2023-04-09T04:59:09;68.53;;;36.60;;
19434;SDS011;9853;50.848;4.108;2023-04-09T05:01:22;70.77;;;39.17;;
19434;SDS011;9853;50.848;4.108;2023-04-09T05:03:23;83.00;;;40.80;;
19434;SDS011;9853;50.848;4.108;2023-04-09T05:05:31;81.57;;;41.30;;
19434;SDS011;9853;50.848;4.108;2023-04-09T05:07:32;80.90;;;40.90;;
19434;SDS011;9853;50.848;4.108;2023-04-09T05:09:33;72.30;;;39.30;;
19434;SDS011;9853;50.848;4.108;2023-04-09T05:11:38;78.73;;;41.63;;
19434;SDS011;9853;50.848;4.108;2023-04-09T05:13:42;79.67;;;41.07;;
19434;SDS011;9853;50.848;4.108;2023-04-09T05:15:44;80.27;;;43.00;;
19434;SDS011;9853;50.848;4.108;2023-04-09T05:17:45;76.77;;;41.30;;
19434;SDS011;9853;50.848;4.108;2023-04-09T05:19:53;81.30;;;42.00;;
19434;SDS011;9853;50.848;4.108;2023-04-09T05:21:59;79.73;;;41.53;;
19434;SDS011;9853;50.848;4.108;2023-04-09T05:24:00;82.03;;;43.17;;
19434;SDS011;9853;50.848;4.108;2023-04-09T05:26:04;80.63;;;42.43;;
19434;SDS011;9853;50.848;4.108;2023-04-09T05:28:16;78.47;;;40.77;;
19434;SDS011;9853;50.848;4.108;2023-04-09T05:30:17;81.60;;;40.83;;
19434;SDS011;9853;50.848;4.108;2023-04-09T05:32:18;74.77;;;39.80;;
19434;SDS011;9853;50.848;4.108;2023-04-09T05:34:19;68.10;;;38.37;;
19434;SDS011;9853;50.848;4.108;2023-04-09T05:36:24;68.23;;;37.47;;
19434;SDS011;9853;50.848;4.108;2023-04-09T05:38:25;65.60;;;37.53;;
19434;SDS011;9853;50.848;4.108;2023-04-09T05:40:30;66.83;;;37.70;;
19434;SDS011;9853;50.848;4.108;2023-04-09T05:42:31;65.03;;;35.53;;
19434;SDS011;9853;50.848;4.108;2023-04-09T05:44:35;72.57;;;39.53;;
19434;SDS011;9853;50.848;4.108;2023-04-09T05:46:44;66.57;;;38.13;;
19434;SDS011;9853;50.848;4.108;2023-04-09T05:48:48;73.97;;;40.27;;
19434;SDS011;9853;50.848;4.108;2023-04-09T05:50:49;68.10;;;39.80;;
19434;SDS011;9853;50.848;4.108;2023-04-09T05:52:51;74.77;;;42.20;;
19434;SDS011;9853;50.848;4.108;2023-04-09T05:54:53;69.43;;;40.83;;
19434;SDS011;9853;50.848;4.108;2023-04-09T05:57:00;75.07;;;40.80;;
19434;SDS011;9853;50.848;4.108;2023-04-09T05:59:01;82.60;;;43.47;;
19434;SDS011;9853;50.848;4.108;2023-04-09T06:01:01;83.07;;;43.80;;
19434;SDS011;9853;50.848;4.108;2023-04-09T06:03:03;74.03;;;42.23;;
19434;SDS011;9853;50.848;4.108;2023-04-09T06:05:04;77.43;;;43.07;;
19434;SDS011;9853;50.848;4.108;2023-04-09T06:07:05;80.47;;;43.37;;
19434;SDS011;9853;50.848;4.108;2023-04-09T06:09:05;84.80;;;45.60;;
19434;SDS011;9853;50.848;4.108;2023-04-09T06:11:10;82.20;;;44.30;;
19434;SDS011;9853;50.848;4.108;2023-04-09T06:13:11;81.37;;;45.90;;
19434;SDS011;9853;50.848;4.108;2023-04-09T06:15:12;83.37;;;43.60;;
19434;SDS011;9853;50.848;4.108;2023-04-09T06:17:12;85.17;;;43.73;;
19434;SDS011;9853;50.848;4.108;2023-04-09T06:19:14;85.73;;;46.10;;
19434;SDS011;9853;50.848;4.108;2023-04-09T06:21:15;92.47;;;46.53;;
19434;SDS011;9853;50.848;4.108;2023-04-09T06:23:16;85.82;;;44.28;;
19434;SDS011;9853;50.848;4.108;2023-04-09T06:25:17;86.93;;;45.57;;
19434;SDS011;9853;50.848;4.108;2023-04-09T06:27:17;83.07;;;46.17;;
19434;SDS011;9853;50.848;4.108;2023-04-09T06:29:20;87.70;;;45.67;;
19434;SDS011;9853;50.848;4.108;2023-04-09T06:31:21;82.43;;;45.30;;
19434;SDS011;9853;50.848;4.108;2023-04-09T06:33:22;86.50;;;46.83;;
19434;SDS011;9853;50.848;4.108;2023-04-09T06:35:23;92.60;;;46.73;;
19434;SDS011;9853;50.848;4.108;2023-04-09T06:37:24;86.30;;;46.27;;
19434;SDS011;9853;50.848;4.108;2023-04-09T06:39:24;89.27;;;47.73;;
19434;SDS011;9853;50.848;4.108;2023-04-09T06:41:25;83.57;;;45.93;;
19434;SDS011;9853;50.848;4.108;2023-04-09T06:43:27;89.37;;;48.03;;
19434;SDS011;9853;50.848;4.108;2023-04-09T06:45:27;84.90;;;47.13;;
19434;SDS011;9853;50.848;4.108;2023-04-09T06:47:28;91.40;;;47.13;;
19434;SDS011;9853;50.848;4.108;2023-04-09T06:49:29;88.27;;;47.40;;
19434;SDS011;9853;50.848;4.108;2023-04-09T06:51:30;87.00;;;48.10;;
19434;SDS011;9853;50.848;4.108;2023-04-09T06:53:30;87.87;;;48.30;;
19434;SDS011;9853;50.848;4.108;2023-04-09T06:55:31;85.10;;;46.93;;
19434;SDS011;9853;50.848;4.108;2023-04-09T06:57:32;83.67;;;46.97;;
19434;SDS011;9853;50.848;4.108;2023-04-09T06:59:32;82.07;;;46.27;;
19434;SDS011;9853;50.848;4.108;2023-04-09T07:01:33;87.60;;;47.20;;
19434;SDS011;9853;50.848;4.108;2023-04-09T07:03:36;83.63;;;45.67;;
19434;SDS011;9853;50.848;4.108;2023-04-09T07:05:37;79.90;;;45.57;;
19434;SDS011;9853;50.848;4.108;2023-04-09T07:07:38;83.47;;;46.10;;
19434;SDS011;9853;50.848;4.108;2023-04-09T07:09:38;77.67;;;44.60;;
19434;SDS011;9853;50.848;4.108;2023-04-09T07:11:39;77.13;;;45.00;;
19434;SDS011;9853;50.848;4.108;2023-04-09T07:13:40;78.35;;;43.97;;
19434;SDS011;9853;50.848;4.108;2023-04-09T07:15:40;64.03;;;39.92;;
19434;SDS011;9853;50.848;4.108;2023-04-09T07:17:41;62.10;;;38.58;;
19434;SDS011;9853;50.848;4.108;2023-04-09T07:19:42;60.60;;;38.25;;
19434;SDS011;9853;50.848;4.108;2023-04-09T07:21:42;59.22;;;36.95;;
19434;SDS011;9853;50.848;4.108;2023-04-09T07:23:43;57.72;;;37.80;;
19434;SDS011;9853;50.848;4.108;2023-04-09T07:25:44;56.45;;;35.05;;
19434;SDS011;9853;50.848;4.108;2023-04-09T07:27:45;56.67;;;36.63;;
19434;SDS011;9853;50.848;4.108;2023-04-09T07:29:46;57.20;;;37.03;;
19434;SDS011;9853;50.848;4.108;2023-04-09T07:31:47;54.42;;;34.80;;
19434;SDS011;9853;50.848;4.108;2023-04-09T07:33:47;52.50;;;35.00;;
19434;SDS011;9853;50.848;4.108;2023-04-09T07:35:48;51.88;;;32.72;;
19434;SDS011;9853;50.848;4.108;2023-04-09T07:37:49;50.80;;;31.63;;
19434;SDS011;9853;50.848;4.108;2023-04-09T07:39:50;48.33;;;31.90;;
19434;SDS011;9853;50.848;4.108;2023-04-09T07:41:51;48.08;;;32.97;;
19434;SDS011;9853;50.848;4.108;2023-04-09T07:43:52;46.15;;;32.33;;
19434;SDS011;9853;50.848;4.108;2023-04-09T07:45:52;47.38;;;31.95;;
19434;SDS011;9853;50.848;4.108;2023-04-09T07:47:53;45.30;;;32.88;;
19434;SDS011;9853;50.848;4.108;2023-04-09T07:49:54;42.58;;;32.30;;
19434;SDS011;9853;50.848;4.108;2023-04-09T07:51:55;42.75;;;31.77;;
19434;SDS011;9853;50.848;4.108;2023-04-09T07:53:56;40.63;;;30.98;;
19434;SDS011;9853;50.848;4.108;2023-04-09T07:55:57;41.25;;;29.17;;
19434;SDS011;9853;50.848;4.108;2023-04-09T07:57:58;43.35;;;28.90;;
19434;SDS011;9853;50.848;4.108;2023-04-09T07:59:58;42.17;;;29.52;;
19434;SDS011;9853;50.848;4.108;2023-04-09T08:01:59;33.97;;;26.75;;
19434;SDS011;9853;50.848;4.108;2023-04-09T08:04:00;39.05;;;27.92;;
19434;SDS011;9853;50.848;4.108;2023-04-09T08:06:01;40.83;;;27.40;;
19434;SDS011;9853;50.848;4.108;2023-04-09T08:08:03;38.35;;;26.23;;
19434;SDS011;9853;50.848;4.108;2023-04-09T08:10:04;35.13;;;26.48;;
19434;SDS011;9853;50.848;4.108;2023-04-09T08:12:06;38.63;;;26.38;;
19434;SDS011;9853;50.848;4.108;2023-04-09T08:14:06;38.22;;;26.90;;
19434;SDS011;9853;50.848;4.108;2023-04-09T08:16:11;37.70;;;26.30;;
19434;SDS011;9853;50.848;4.108;2023-04-09T08:18:12;40.97;;;27.70;;
19434;SDS011;9853;50.848;4.108;2023-04-09T08:20:13;43.15;;;26.40;;
19434;SDS011;9853;50.848;4.108;2023-04-09T08:22:15;37.63;;;26.27;;
19434;SDS011;9853;50.848;4.108;2023-04-09T08:24:16;34.40;;;26.65;;
19434;SDS011;9853;50.848;4.108;2023-04-09T08:26:17;35.45;;;26.25;;
19434;SDS011;9853;50.848;4.108;2023-04-09T08:28:18;33.38;;;24.95;;
19434;SDS011;9853;50.848;4.108;2023-04-09T08:30:19;32.65;;;23.80;;
19434;SDS011;9853;50.848;4.108;2023-04-09T08:32:20;32.40;;;24.42;;
19434;SDS011;9853;50.848;4.108;2023-04-09T08:34:21;32.30;;;25.48;;
19434;SDS011;9853;50.848;4.108;2023-04-09T08:36:22;32.17;;;25.75;;
19434;SDS011;9853;50.848;4.108;2023-04-09T08:38:23;33.70;;;26.05;;
19434;SDS011;9853;50.848;4.108;2023-04-09T08:40:23;32.08;;;24.92;;
19434;SDS011;9853;50.848;4.108;2023-04-09T08:42:24;33.47;;;25.95;;
19434;SDS011;9853;50.848;4.108;2023-04-09T08:44:26;37.85;;;26.85;;
19434;SDS011;9853;50.848;4.108;2023-04-09T08:46:27;37.00;;;26.95;;
19434;SDS011;9853;50.848;4.108;2023-04-09T08:48:28;35.38;;;26.05;;
19434;SDS011;9853;50.848;4.108;2023-04-09T08:50:29;38.33;;;27.98;;
19434;SDS011;9853;50.848;4.108;2023-04-09T08:52:32;35.58;;;26.15;;
19434;SDS011;9853;50.848;4.108;2023-04-09T08:54:33;35.80;;;27.70;;
19434;SDS011;9853;50.848;4.108;2023-04-09T08:56:34;36.67;;;27.42;;
19434;SDS011;9853;50.848;4.108;2023-04-09T08:58:35;35.28;;;25.90;;
19434;SDS011;9853;50.848;4.108;2023-04-09T09:00:36;34.92;;;26.65;;
19434;SDS011;9853;50.848;4.108;2023-04-09T09:02:37;33.60;;;25.23;;
19434;SDS011;9853;50.848;4.108;2023-04-09T09:04:48;34.40;;;25.65;;
19434;SDS011;9853;50.848;4.108;2023-04-09T09:06:49;31.65;;;25.38;;
19434;SDS011;9853;50.848;4.108;2023-04-09T09:09:10;29.25;;;24.48;;
19434;SDS011;9853;50.848;4.108;2023-04-09T09:11:23;36.88;;;25.73;;
19434;SDS011;9853;50.848;4.108;2023-04-09T09:13:26;30.38;;;23.83;;
19434;SDS011;9853;50.848;4.108;2023-04-09T09:15:27;36.30;;;26.45;;
19434;SDS011;9853;50.848;4.108;2023-04-09T09:17:28;36.60;;;24.70;;
19434;SDS011;9853;50.848;4.108;2023-04-09T09:19:30;34.42;;;24.63;;
19434;SDS011;9853;50.848;4.108;2023-04-09T09:21:35;34.60;;;25.58;;
19434;SDS011;9853;50.848;4.108;2023-04-09T09:23:36;34.83;;;24.92;;
19434;SDS011;9853;50.848;4.108;2023-04-09T09:25:38;31.55;;;24.83;;
19434;SDS011;9853;50.848;4.108;2023-04-09T09:27:39;32.15;;;25.02;;
19434;SDS011;9853;50.848;4.108;2023-04-09T09:29:40;35.03;;;25.42;;
19434;SDS011;9853;50.848;4.108;2023-04-09T09:31:46;31.23;;;24.08;;
19434;SDS011;9853;50.848;4.108;2023-04-09T09:33:48;32.10;;;24.20;;
19434;SDS011;9853;50.848;4.108;2023-04-09T09:35:51;36.75;;;25.63;;
19434;SDS011;9853;50.848;4.108;2023-04-09T09:38:00;33.08;;;24.73;;
19434;SDS011;9853;50.848;4.108;2023-04-09T09:40:04;34.40;;;24.48;;
19434;SDS011;9853;50.848;4.108;2023-04-09T09:42:07;31.85;;;25.05;;
19434;SDS011;9853;50.848;4.108;2023-04-09T09:44:09;33.33;;;24.33;;
19434;SDS011;9853;50.848;4.108;2023-04-09T09:46:11;35.25;;;23.58;;
19434;SDS011;9853;50.848;4.108;2023-04-09T09:48:12;31.92;;;23.05;;
19434;SDS011;9853;50.848;4.108;2023-04-09T09:50:13;32.33;;;24.60;;
19434;SDS011;9853;50.848;4.108;2023-04-09T09:52:14;32.13;;;24.10;;
19434;SDS011;9853;50.848;4.108;2023-04-09T09:54:16;34.47;;;25.23;;
19434;SDS011;9853;50.848;4.108;2023-04-09T09:56:21;33.92;;;26.00;;
19434;SDS011;9853;50.848;4.108;2023-04-09T09:58:27;31.13;;;23.95;;
19434;SDS011;9853;50.848;4.108;2023-04-09T10:00:34;36.58;;;24.08;;
19434;SDS011;9853;50.848;4.108;2023-04-09T10:02:40;36.53;;;23.35;;
19434;SDS011;9853;50.848;4.108;2023-04-09T10:04:47;29.10;;;20.80;;
19434;SDS011;9853;50.848;4.108;2023-04-09T10:06:50;31.23;;;22.52;;
19434;SDS011;9853;50.848;4.108;2023-04-09T10:08:51;32.10;;;22.05;;
19434;SDS011;9853;50.848;4.108;2023-04-09T10:10:55;33.28;;;22.08;;
19434;SDS011;9853;50.848;4.108;2023-04-09T10:12:56;31.23;;;22.77;;
19434;SDS011;9853;50.848;4.108;2023-04-09T10:14:58;33.63;;;23.50;;
19434;SDS011;9853;50.848;4.108;2023-04-09T10:17:03;34.15;;;23.73;;
19434;SDS011;9853;50.848;4.108;2023-04-09T10:19:04;34.60;;;24.45;;
19434;SDS011;9853;50.848;4.108;2023-04-09T10:21:21;32.47;;;23.67;;
19434;SDS011;9853;50.848;4.108;2023-04-09T10:23:34;34.55;;;23.92;;
19434;SDS011;9853;50.848;4.108;2023-04-09T10:25:40;33.90;;;24.38;;
19434;SDS011;9853;50.848;4.108;2023-04-09T10:27:42;32.70;;;22.23;;
19434;SDS011;9853;50.848;4.108;2023-04-09T10:29:48;28.95;;;19.17;;
19434;SDS011;9853;50.848;4.108;2023-04-09T10:32:04;32.90;;;19.02;;
19434;SDS011;9853;50.848;4.108;2023-04-09T10:34:07;31.02;;;20.48;;
19434;SDS011;9853;50.848;4.108;2023-04-09T10:36:08;33.63;;;19.98;;
19434;SDS011;9853;50.848;4.108;2023-04-09T10:38:12;31.05;;;20.02;;
19434;SDS011;9853;50.848;4.108;2023-04-09T10:40:20;28.95;;;20.45;;
19434;SDS011;9853;50.848;4.108;2023-04-09T10:42:42;33.78;;;20.10;;
19434;SDS011;9853;50.848;4.108;2023-04-09T10:44:42;26.60;;;18.50;;
19434;SDS011;9853;50.848;4.108;2023-04-09T10:46:43;28.58;;;20.17;;
19434;SDS011;9853;50.848;4.108;2023-04-09T10:48:45;31.95;;;21.05;;
19434;SDS011;9853;50.848;4.108;2023-04-09T10:50:45;32.53;;;20.67;;
19434;SDS011;9853;50.848;4.108;2023-04-09T10:52:51;30.05;;;20.35;;
19434;SDS011;9853;50.848;4.108;2023-04-09T10:54:57;29.98;;;19.55;;
19434;SDS011;9853;50.848;4.108;2023-04-09T10:59:07;31.83;;;21.10;;
19434;SDS011;9853;50.848;4.108;2023-04-09T11:01:08;30.35;;;20.45;;
19434;SDS011;9853;50.848;4.108;2023-04-09T11:07:31;31.30;;;21.52;;
19434;SDS011;9853;50.848;4.108;2023-04-09T11:09:36;29.38;;;21.48;;
19434;SDS011;9853;50.848;4.108;2023-04-09T11:11:37;30.35;;;21.15;;
19434;SDS011;9853;50.848;4.108;2023-04-09T11:13:39;32.47;;;21.02;;
19434;SDS011;9853;50.848;4.108;2023-04-09T11:15:41;26.55;;;19.40;;
19434;SDS011;9853;50.848;4.108;2023-04-09T11:17:43;32.08;;;19.38;;
19434;SDS011;9853;50.848;4.108;2023-04-09T11:19:45;30.30;;;19.23;;
19434;SDS011;9853;50.848;4.108;2023-04-09T11:21:49;22.95;;;15.38;;
19434;SDS011;9853;50.848;4.108;2023-04-09T11:23:53;28.27;;;17.27;;
19434;SDS011;9853;50.848;4.108;2023-04-09T11:25:54;29.67;;;19.23;;
19434;SDS011;9853;50.848;4.108;2023-04-09T11:27:55;25.15;;;18.20;;
19434;SDS011;9853;50.848;4.108;2023-04-09T11:29:56;25.85;;;18.65;;
19434;SDS011;9853;50.848;4.108;2023-04-09T11:31:57;26.08;;;17.13;;
19434;SDS011;9853;50.848;4.108;2023-04-09T11:33:59;25.02;;;17.80;;
19434;SDS011;9853;50.848;4.108;2023-04-09T11:35:59;25.52;;;16.70;;
19434;SDS011;9853;50.848;4.108;2023-04-09T11:38:04;26.52;;;17.70;;
19434;SDS011;9853;50.848;4.108;2023-04-09T11:40:16;25.90;;;17.42;;
19434;SDS011;9853;50.848;4.108;2023-04-09T11:42:21;25.52;;;16.38;;
19434;SDS011;9853;50.848;4.108;2023-04-09T11:44:22;26.02;;;14.73;;
19434;SDS011;9853;50.848;4.108;2023-04-09T11:46:22;22.13;;;15.88;;
19434;SDS011;9853;50.848;4.108;2023-04-09T11:48:25;22.63;;;15.27;;
19434;SDS011;9853;50.848;4.108;2023-04-09T11:50:25;21.55;;;14.32;;
19434;SDS011;9853;50.848;4.108;2023-04-09T11:52:26;21.15;;;12.25;;
19434;SDS011;9853;50.848;4.108;2023-04-09T11:54:32;30.65;;;17.00;;
19434;SDS011;9853;50.848;4.108;2023-04-09T11:56:34;20.30;;;14.73;;
19434;SDS011;9853;50.848;4.108;2023-04-09T11:58:35;24.65;;;17.02;;
19434;SDS011;9853;50.848;4.108;2023-04-09T12:00:39;29.35;;;17.67;;
19434;SDS011;9853;50.848;4.108;2023-04-09T12:02:41;25.27;;;16.98;;
19434;SDS011;9853;50.848;4.108;2023-04-09T12:04:49;25.52;;;16.55;;
19434;SDS011;9853;50.848;4.108;2023-04-09T12:06:50;23.80;;;16.70;;
19434;SDS011;9853;50.848;4.108;2023-04-09T12:08:51;24.55;;;17.20;;
19434;SDS011;9853;50.848;4.108;2023-04-09T12:10:56;21.92;;;16.25;;
19434;SDS011;9853;50.848;4.108;2023-04-09T12:13:07;22.70;;;15.98;;
19434;SDS011;9853;50.848;4.108;2023-04-09T12:17:20;24.30;;;15.23;;
19434;SDS011;9853;50.848;4.108;2023-04-09T12:19:23;21.63;;;13.75;;
19434;SDS011;9853;50.848;4.108;2023-04-09T12:21:24;20.50;;;13.88;;
19434;SDS011;9853;50.848;4.108;2023-04-09T12:23:26;21.98;;;15.05;;
19434;SDS011;9853;50.848;4.108;2023-04-09T12:25:27;19.13;;;13.57;;
19434;SDS011;9853;50.848;4.108;2023-04-09T12:27:28;20.25;;;12.85;;
19434;SDS011;9853;50.848;4.108;2023-04-09T12:29:29;21.98;;;13.82;;
19434;SDS011;9853;50.848;4.108;2023-04-09T12:31:30;16.95;;;12.02;;
19434;SDS011;9853;50.848;4.108;2023-04-09T12:33:30;20.10;;;12.85;;